LKE9972 ZJHK-ZPPP
Flight info
| Callsign | LKE9972 |
|---|---|
| Flight time | 1h 33m |
| Altitude | 32100 |
| Route | AGT9XD/10 AGTEL W71 LH R339 BSE A599 LXI |
| Aircraft | B738/M-SDE2E3FGILRWXY/LB2 |
Departure
| Time | 2026-04-28 10:37 |
|---|---|
| Airport | Haikou Meilan International Airport (ZJHK) |
Arrival
| Time | 2026-04-28 12:10 |
|---|---|
| Airport | Kunming Changshui International Airport (ZPPP) |
| Time | Latitude | Longitude | Altitude | Speed | Heading |
|---|---|---|---|---|---|
| 2026-04-28 10:21 | 19.94596 | 110.45163 | 61 ft | 0 kts | 179° |
| 2026-04-28 10:28 | 19.94601 | 110.45163 | 88 ft | 2 kts | 181° |
| 2026-04-28 10:28 | 19.94621 | 110.45164 | 54 ft | 3 kts | 189° |
| 2026-04-28 10:29 | 19.94658 | 110.45178 | 55 ft | 3 kts | 215° |
| 2026-04-28 10:29 | 19.94674 | 110.45192 | 52 ft | 3 kts | 231° |
| 2026-04-28 10:29 | 19.94685 | 110.45210 | 51 ft | 3 kts | 248° |
| 2026-04-28 10:29 | 19.94690 | 110.45230 | 52 ft | 3 kts | 264° |
| 2026-04-28 10:30 | 19.94691 | 110.45241 | 51 ft | 0 kts | 269° |
| 2026-04-28 10:32 | 19.94691 | 110.45240 | 51 ft | 1 kts | 270° |
| 2026-04-28 10:32 | 19.94691 | 110.45224 | 51 ft | 4 kts | 270° |
| 2026-04-28 10:32 | 19.94692 | 110.45183 | 52 ft | 7 kts | 272° |
| 2026-04-28 10:32 | 19.94693 | 110.45120 | 59 ft | 10 kts | 271° |
| 2026-04-28 10:33 | 19.94748 | 110.45079 | 52 ft | 13 kts | 353° |
| 2026-04-28 10:33 | 19.94847 | 110.45078 | 53 ft | 16 kts | 358° |
| 2026-04-28 10:33 | 19.94968 | 110.45072 | 51 ft | 19 kts | 341° |
| 2026-04-28 10:33 | 19.95057 | 110.44974 | 50 ft | 20 kts | 307° |
| 2026-04-28 10:34 | 19.95147 | 110.44853 | 51 ft | 22 kts | 308° |
| 2026-04-28 10:34 | 19.95214 | 110.44821 | 51 ft | 12 kts | 0° |
| 2026-04-28 10:34 | 19.95234 | 110.44821 | 50 ft | 0 kts | 0° |
| 2026-04-28 10:35 | 19.95242 | 110.44821 | 50 ft | 4 kts | 0° |
| 2026-04-28 10:35 | 19.95289 | 110.44821 | 48 ft | 10 kts | 2° |
| 2026-04-28 10:35 | 19.95366 | 110.44865 | 49 ft | 15 kts | 53° |
| 2026-04-28 10:35 | 19.95373 | 110.44905 | 49 ft | 4 kts | 88° |
| 2026-04-28 10:36 | 19.95373 | 110.45090 | 52 ft | 55 kts | 90° |
| 2026-04-28 10:36 | 19.95374 | 110.45725 | 56 ft | 114 kts | 90° |
| 2026-04-28 10:36 | 19.95378 | 110.46746 | 61 ft | 160 kts | 91° |
| 2026-04-28 10:36 | 19.95387 | 110.47999 | 390 ft | 175 kts | 86° |
| 2026-04-28 10:37 | 19.95744 | 110.49298 | 709 ft | 195 kts | 59° |
| 2026-04-28 10:37 | 19.96841 | 110.50216 | 1001 ft | 217 kts | 17° |
| 2026-04-28 10:37 | 19.98370 | 110.50108 | 1289 ft | 228 kts | 338° |
| 2026-04-28 10:37 | 19.99844 | 110.49391 | 1610 ft | 238 kts | 334° |
| 2026-04-28 10:38 | 20.01324 | 110.48643 | 2043 ft | 239 kts | 334° |
| 2026-04-28 10:38 | 20.02842 | 110.47895 | 2473 ft | 241 kts | 334° |
| 2026-04-28 10:38 | 20.04378 | 110.47161 | 2881 ft | 244 kts | 334° |
| 2026-04-28 10:38 | 20.05957 | 110.46424 | 3259 ft | 253 kts | 335° |
| 2026-04-28 10:39 | 20.07611 | 110.45667 | 3640 ft | 263 kts | 335° |
| 2026-04-28 10:39 | 20.09317 | 110.44896 | 4024 ft | 268 kts | 335° |
| 2026-04-28 10:39 | 20.11034 | 110.44128 | 4399 ft | 270 kts | 335° |
| 2026-04-28 10:39 | 20.12790 | 110.43347 | 4785 ft | 277 kts | 335° |
| 2026-04-28 10:40 | 20.14578 | 110.42556 | 5274 ft | 278 kts | 335° |
| 2026-04-28 10:40 | 20.16365 | 110.41766 | 5765 ft | 278 kts | 335° |
| 2026-04-28 10:40 | 20.18153 | 110.40977 | 6253 ft | 278 kts | 335° |
| 2026-04-28 10:40 | 20.19946 | 110.40186 | 6723 ft | 278 kts | 335° |
| 2026-04-28 10:41 | 20.21733 | 110.39397 | 7184 ft | 278 kts | 335° |
| 2026-04-28 10:41 | 20.23519 | 110.38610 | 7668 ft | 279 kts | 335° |
| 2026-04-28 10:41 | 20.25312 | 110.37820 | 8164 ft | 284 kts | 336° |
| 2026-04-28 10:41 | 20.27199 | 110.37100 | 8690 ft | 291 kts | 339° |
| 2026-04-28 10:42 | 20.29138 | 110.36439 | 9330 ft | 294 kts | 340° |
| 2026-04-28 10:42 | 20.31103 | 110.35782 | 9941 ft | 297 kts | 340° |
| 2026-04-28 10:42 | 20.33090 | 110.35114 | 10522 ft | 301 kts | 340° |
| 2026-04-28 10:42 | 20.35097 | 110.34432 | 11124 ft | 304 kts | 339° |
| 2026-04-28 10:43 | 20.37125 | 110.33739 | 11729 ft | 307 kts | 339° |
| 2026-04-28 10:43 | 20.39169 | 110.33037 | 12346 ft | 310 kts | 339° |
| 2026-04-28 10:43 | 20.41230 | 110.32328 | 12970 ft | 313 kts | 339° |
| 2026-04-28 10:43 | 20.43316 | 110.31608 | 13582 ft | 317 kts | 338° |
| 2026-04-28 10:44 | 20.45471 | 110.30862 | 13709 ft | 333 kts | 339° |
| 2026-04-28 10:44 | 20.47683 | 110.30098 | 13716 ft | 336 kts | 339° |
| 2026-04-28 10:44 | 20.49929 | 110.29398 | 13718 ft | 338 kts | 347° |
| 2026-04-28 10:44 | 20.52289 | 110.29331 | 13736 ft | 341 kts | 359° |
| 2026-04-28 10:45 | 20.54656 | 110.29494 | 13726 ft | 341 kts | 1° |
| 2026-04-28 10:45 | 20.57022 | 110.29685 | 13728 ft | 341 kts | 1° |
| 2026-04-28 10:45 | 20.59390 | 110.29876 | 13725 ft | 341 kts | 1° |
| 2026-04-28 10:45 | 20.61775 | 110.30058 | 13755 ft | 348 kts | 0° |
| 2026-04-28 10:46 | 20.64231 | 110.30234 | 13881 ft | 366 kts | 0° |
| 2026-04-28 10:46 | 20.66831 | 110.30414 | 13993 ft | 384 kts | 0° |
| 2026-04-28 10:46 | 20.69542 | 110.30599 | 14257 ft | 394 kts | 0° |
| 2026-04-28 10:46 | 20.72296 | 110.30787 | 14708 ft | 398 kts | 0° |
| 2026-04-28 10:47 | 20.75068 | 110.30976 | 15244 ft | 400 kts | 0° |
| 2026-04-28 10:47 | 20.77848 | 110.31166 | 15772 ft | 402 kts | 0° |
| 2026-04-28 10:47 | 20.80649 | 110.31355 | 16268 ft | 404 kts | 0° |
| 2026-04-28 10:47 | 20.83471 | 110.31545 | 16745 ft | 408 kts | 0° |
| 2026-04-28 10:48 | 20.86307 | 110.31736 | 17209 ft | 411 kts | 360° |
| 2026-04-28 10:48 | 20.89174 | 110.31929 | 17672 ft | 414 kts | 360° |
| 2026-04-28 10:48 | 20.92052 | 110.32123 | 18120 ft | 416 kts | 360° |
| 2026-04-28 10:48 | 20.94953 | 110.32319 | 18515 ft | 419 kts | 360° |
| 2026-04-28 10:49 | 20.97878 | 110.32516 | 18906 ft | 421 kts | 360° |
| 2026-04-28 10:49 | 21.00700 | 110.32694 | 19277 ft | 423 kts | 359° |
| 2026-04-28 10:49 | 21.03608 | 110.32836 | 19648 ft | 425 kts | 358° |
| 2026-04-28 10:49 | 21.06547 | 110.32968 | 20026 ft | 427 kts | 358° |
| 2026-04-28 10:50 | 21.09510 | 110.32921 | 20363 ft | 425 kts | 346° |
| 2026-04-28 10:50 | 21.11423 | 110.32361 | 20592 ft | 420 kts | 333° |
| 2026-04-28 10:50 | 21.14619 | 110.30145 | 21113 ft | 412 kts | 313° |
| 2026-04-28 10:50 | 21.16413 | 110.27772 | 21471 ft | 409 kts | 298° |
| 2026-04-28 10:51 | 21.17795 | 110.25114 | 21852 ft | 409 kts | 296° |
| 2026-04-28 10:51 | 21.19134 | 110.22408 | 22183 ft | 412 kts | 296° |
| 2026-04-28 10:51 | 21.20466 | 110.19684 | 22520 ft | 414 kts | 296° |
| 2026-04-28 10:51 | 21.21814 | 110.16940 | 22870 ft | 416 kts | 296° |
| 2026-04-28 10:52 | 21.23172 | 110.14196 | 23193 ft | 418 kts | 296° |
| 2026-04-28 10:52 | 21.24550 | 110.11434 | 23492 ft | 421 kts | 296° |
| 2026-04-28 10:52 | 21.25935 | 110.08669 | 23762 ft | 422 kts | 296° |
| 2026-04-28 10:52 | 21.27329 | 110.05896 | 24050 ft | 423 kts | 297° |
| 2026-04-28 10:53 | 21.28715 | 110.03143 | 24329 ft | 424 kts | 297° |
| 2026-04-28 10:53 | 21.30120 | 110.00350 | 24596 ft | 426 kts | 297° |
| 2026-04-28 10:53 | 21.31529 | 109.97548 | 24860 ft | 427 kts | 297° |
| 2026-04-28 10:53 | 21.32940 | 109.94742 | 25122 ft | 428 kts | 297° |
| 2026-04-28 10:54 | 21.34355 | 109.91923 | 25364 ft | 430 kts | 297° |
| 2026-04-28 10:54 | 21.35777 | 109.89091 | 25601 ft | 432 kts | 297° |
| 2026-04-28 10:54 | 21.37202 | 109.86250 | 25849 ft | 433 kts | 297° |
| 2026-04-28 10:54 | 21.38632 | 109.83398 | 26087 ft | 434 kts | 297° |
| 2026-04-28 10:55 | 21.40063 | 109.80541 | 26314 ft | 435 kts | 297° |
| 2026-04-28 10:55 | 21.41500 | 109.77671 | 26539 ft | 437 kts | 297° |
| 2026-04-28 10:55 | 21.42924 | 109.74826 | 26753 ft | 438 kts | 297° |
| 2026-04-28 10:55 | 21.44369 | 109.71939 | 26960 ft | 440 kts | 297° |
| 2026-04-28 10:56 | 21.45817 | 109.69043 | 27175 ft | 441 kts | 297° |
| 2026-04-28 10:56 | 21.47270 | 109.66133 | 27402 ft | 442 kts | 297° |
| 2026-04-28 10:56 | 21.48720 | 109.63230 | 27713 ft | 441 kts | 297° |
| 2026-04-28 10:56 | 21.50164 | 109.60338 | 28053 ft | 439 kts | 297° |
| 2026-04-28 10:57 | 21.51601 | 109.57457 | 28361 ft | 438 kts | 297° |
| 2026-04-28 10:57 | 21.53041 | 109.54569 | 28671 ft | 437 kts | 297° |
| 2026-04-28 10:57 | 21.54475 | 109.51690 | 28973 ft | 437 kts | 298° |
| 2026-04-28 10:57 | 21.55908 | 109.48813 | 29299 ft | 436 kts | 298° |
| 2026-04-28 10:58 | 21.57330 | 109.45957 | 29630 ft | 435 kts | 298° |
| 2026-04-28 10:58 | 21.58830 | 109.43130 | 29952 ft | 434 kts | 303° |
| 2026-04-28 10:58 | 21.60650 | 109.40547 | 30203 ft | 434 kts | 309° |
| 2026-04-28 10:58 | 21.62595 | 109.38081 | 30491 ft | 433 kts | 309° |
| 2026-04-28 10:59 | 21.64531 | 109.35646 | 30763 ft | 432 kts | 309° |
| 2026-04-28 10:59 | 21.66476 | 109.33189 | 31029 ft | 432 kts | 309° |
| 2026-04-28 10:59 | 21.68417 | 109.30720 | 31321 ft | 431 kts | 309° |
| 2026-04-28 10:59 | 21.70343 | 109.28256 | 31624 ft | 429 kts | 309° |
| 2026-04-28 11:00 | 21.72256 | 109.25799 | 31913 ft | 429 kts | 308° |
| 2026-04-28 11:00 | 21.76098 | 109.20852 | 31912 ft | 431 kts | 308° |
| 2026-04-28 11:01 | 21.79921 | 109.15923 | 31912 ft | 427 kts | 308° |
| 2026-04-28 11:01 | 21.83721 | 109.11024 | 31910 ft | 425 kts | 308° |
| 2026-04-28 11:02 | 21.87493 | 109.06179 | 31912 ft | 424 kts | 309° |
| 2026-04-28 11:02 | 21.91302 | 109.01323 | 31906 ft | 424 kts | 309° |
| 2026-04-28 11:03 | 21.95114 | 108.96458 | 31906 ft | 426 kts | 309° |
| 2026-04-28 11:03 | 21.98934 | 108.91572 | 31901 ft | 427 kts | 308° |
| 2026-04-28 11:04 | 22.02765 | 108.86664 | 31898 ft | 429 kts | 308° |
| 2026-04-28 11:04 | 22.06611 | 108.81733 | 31895 ft | 430 kts | 308° |
| 2026-04-28 11:05 | 22.09814 | 108.77624 | 31900 ft | 431 kts | 308° |
| 2026-04-28 11:05 | 22.13682 | 108.72666 | 31892 ft | 432 kts | 308° |
| 2026-04-28 11:06 | 22.17572 | 108.67700 | 31894 ft | 433 kts | 308° |
| 2026-04-28 11:06 | 22.21466 | 108.62727 | 31880 ft | 434 kts | 308° |
| 2026-04-28 11:07 | 22.25332 | 108.57781 | 31882 ft | 434 kts | 308° |
| 2026-04-28 11:07 | 22.29219 | 108.52801 | 31881 ft | 433 kts | 308° |
| 2026-04-28 11:08 | 22.33102 | 108.47822 | 31876 ft | 433 kts | 308° |
| 2026-04-28 11:08 | 22.36982 | 108.42841 | 31915 ft | 433 kts | 307° |
| 2026-04-28 11:09 | 22.40873 | 108.37841 | 31871 ft | 435 kts | 307° |
| 2026-04-28 11:09 | 22.44777 | 108.32819 | 31860 ft | 436 kts | 307° |
| 2026-04-28 11:10 | 22.48654 | 108.27829 | 31853 ft | 437 kts | 307° |
| 2026-04-28 11:10 | 22.52564 | 108.22789 | 31850 ft | 438 kts | 307° |
| 2026-04-28 11:11 | 22.56488 | 108.17730 | 31849 ft | 439 kts | 307° |
| 2026-04-28 11:11 | 22.60489 | 108.12723 | 31847 ft | 441 kts | 310° |
| 2026-04-28 11:12 | 22.64717 | 108.07916 | 31850 ft | 441 kts | 311° |
| 2026-04-28 11:12 | 22.68975 | 108.03126 | 31848 ft | 442 kts | 311° |
| 2026-04-28 11:13 | 22.73217 | 107.98303 | 31856 ft | 441 kts | 310° |
| 2026-04-28 11:13 | 22.77418 | 107.93494 | 31855 ft | 441 kts | 310° |
| 2026-04-28 11:14 | 22.81637 | 107.88654 | 31860 ft | 441 kts | 310° |
| 2026-04-28 11:14 | 22.85855 | 107.83813 | 31863 ft | 441 kts | 310° |
| 2026-04-28 11:15 | 22.90067 | 107.78975 | 31866 ft | 441 kts | 310° |
| 2026-04-28 11:15 | 22.94280 | 107.74129 | 31863 ft | 441 kts | 310° |
| 2026-04-28 11:16 | 22.98484 | 107.69291 | 31865 ft | 441 kts | 310° |
| 2026-04-28 11:16 | 23.02696 | 107.64439 | 31870 ft | 441 kts | 310° |
| 2026-04-28 11:17 | 23.06905 | 107.59591 | 31874 ft | 441 kts | 310° |
| 2026-04-28 11:17 | 23.11116 | 107.54739 | 31873 ft | 441 kts | 310° |
| 2026-04-28 11:18 | 23.15324 | 107.49885 | 31872 ft | 442 kts | 310° |
| 2026-04-28 11:18 | 23.19538 | 107.45018 | 31877 ft | 442 kts | 310° |
| 2026-04-28 11:19 | 23.23731 | 107.40171 | 31871 ft | 443 kts | 310° |
| 2026-04-28 11:19 | 23.27955 | 107.35283 | 31876 ft | 443 kts | 311° |
| 2026-04-28 11:20 | 23.32184 | 107.30383 | 31874 ft | 444 kts | 311° |
| 2026-04-28 11:20 | 23.36415 | 107.25477 | 31880 ft | 445 kts | 311° |
| 2026-04-28 11:21 | 23.40658 | 107.20552 | 31876 ft | 446 kts | 311° |
| 2026-04-28 11:21 | 23.44897 | 107.15626 | 31881 ft | 447 kts | 311° |
| 2026-04-28 11:22 | 23.49153 | 107.10677 | 31886 ft | 448 kts | 310° |
| 2026-04-28 11:22 | 23.53410 | 107.05719 | 31884 ft | 449 kts | 310° |
| 2026-04-28 11:23 | 23.57683 | 107.00740 | 31886 ft | 450 kts | 310° |
| 2026-04-28 11:23 | 23.61932 | 106.95783 | 31885 ft | 451 kts | 310° |
| 2026-04-28 11:24 | 23.66213 | 106.90783 | 31895 ft | 451 kts | 310° |
| 2026-04-28 11:24 | 23.70511 | 106.85758 | 31900 ft | 453 kts | 310° |
| 2026-04-28 11:25 | 23.73957 | 106.80141 | 31907 ft | 445 kts | 286° |
| 2026-04-28 11:25 | 23.75313 | 106.73606 | 31907 ft | 443 kts | 278° |
| 2026-04-28 11:26 | 23.76363 | 106.66970 | 31900 ft | 443 kts | 278° |
| 2026-04-28 11:26 | 23.77375 | 106.60329 | 31908 ft | 443 kts | 278° |
| 2026-04-28 11:27 | 23.78369 | 106.53722 | 31558 ft | 435 kts | 278° |
| 2026-04-28 11:27 | 23.78856 | 106.50479 | 31330 ft | 432 kts | 278° |
| 2026-04-28 11:27 | 23.79341 | 106.47244 | 31101 ft | 431 kts | 278° |
| 2026-04-28 11:27 | 23.79825 | 106.44000 | 30872 ft | 434 kts | 278° |
| 2026-04-28 11:28 | 23.80309 | 106.40736 | 30640 ft | 435 kts | 278° |
| 2026-04-28 11:28 | 23.80790 | 106.37475 | 30420 ft | 437 kts | 278° |
| 2026-04-28 11:28 | 23.81273 | 106.34186 | 30187 ft | 438 kts | 278° |
| 2026-04-28 11:28 | 23.81751 | 106.30908 | 30004 ft | 437 kts | 278° |
| 2026-04-28 11:29 | 23.82220 | 106.27671 | 29946 ft | 437 kts | 278° |
| 2026-04-28 11:29 | 23.83170 | 106.21085 | 29918 ft | 439 kts | 278° |
| 2026-04-28 11:30 | 23.84113 | 106.14514 | 29917 ft | 437 kts | 278° |
| 2026-04-28 11:30 | 23.85522 | 106.04671 | 29935 ft | 437 kts | 278° |
| 2026-04-28 11:31 | 23.86459 | 105.98106 | 29928 ft | 437 kts | 278° |
| 2026-04-28 11:31 | 23.87391 | 105.91547 | 29939 ft | 437 kts | 278° |
| 2026-04-28 11:32 | 23.88325 | 105.84981 | 29943 ft | 437 kts | 278° |
| 2026-04-28 11:32 | 23.89252 | 105.78460 | 29946 ft | 437 kts | 278° |
| 2026-04-28 11:33 | 23.90183 | 105.71900 | 29953 ft | 437 kts | 278° |
| 2026-04-28 11:33 | 23.91119 | 105.65334 | 29951 ft | 437 kts | 278° |
| 2026-04-28 11:34 | 23.92056 | 105.58776 | 29963 ft | 436 kts | 278° |
| 2026-04-28 11:34 | 23.92523 | 105.55513 | 29754 ft | 430 kts | 278° |
| 2026-04-28 11:34 | 23.92984 | 105.52319 | 29481 ft | 419 kts | 278° |
| 2026-04-28 11:35 | 23.93498 | 105.49210 | 29206 ft | 413 kts | 283° |
| 2026-04-28 11:35 | 23.94305 | 105.46212 | 28944 ft | 411 kts | 287° |
| 2026-04-28 11:35 | 23.95214 | 105.43252 | 28708 ft | 410 kts | 287° |
| 2026-04-28 11:35 | 23.95928 | 105.40241 | 28428 ft | 407 kts | 280° |
| 2026-04-28 11:36 | 23.96449 | 105.37205 | 28197 ft | 406 kts | 278° |
| 2026-04-28 11:36 | 23.96917 | 105.34207 | 27944 ft | 404 kts | 278° |
| 2026-04-28 11:36 | 23.97380 | 105.31179 | 27694 ft | 403 kts | 278° |
| 2026-04-28 11:36 | 23.97836 | 105.28163 | 27441 ft | 402 kts | 278° |
| 2026-04-28 11:37 | 23.98286 | 105.25156 | 27198 ft | 400 kts | 278° |
| 2026-04-28 11:37 | 23.98732 | 105.22157 | 26964 ft | 399 kts | 278° |
| 2026-04-28 11:37 | 23.99177 | 105.19160 | 26715 ft | 398 kts | 278° |
| 2026-04-28 11:37 | 23.99618 | 105.16179 | 26475 ft | 396 kts | 278° |
| 2026-04-28 11:38 | 24.00058 | 105.13215 | 26241 ft | 395 kts | 278° |
| 2026-04-28 11:38 | 24.00497 | 105.10255 | 26008 ft | 393 kts | 278° |
| 2026-04-28 11:38 | 24.00936 | 105.07304 | 25772 ft | 391 kts | 278° |
| 2026-04-28 11:38 | 24.01372 | 105.04373 | 25545 ft | 389 kts | 278° |
| 2026-04-28 11:39 | 24.01809 | 105.01446 | 25311 ft | 387 kts | 278° |
| 2026-04-28 11:39 | 24.02243 | 104.98547 | 25085 ft | 386 kts | 278° |
| 2026-04-28 11:39 | 24.02674 | 104.95664 | 24850 ft | 384 kts | 278° |
| 2026-04-28 11:39 | 24.03106 | 104.92787 | 24631 ft | 382 kts | 278° |
| 2026-04-28 11:40 | 24.03537 | 104.89921 | 24411 ft | 380 kts | 278° |
| 2026-04-28 11:40 | 24.03960 | 104.87110 | 24195 ft | 379 kts | 278° |
| 2026-04-28 11:40 | 24.04386 | 104.84274 | 23976 ft | 377 kts | 278° |
| 2026-04-28 11:40 | 24.04811 | 104.81447 | 23759 ft | 376 kts | 278° |
| 2026-04-28 11:41 | 24.05234 | 104.78631 | 23536 ft | 375 kts | 278° |
| 2026-04-28 11:41 | 24.05656 | 104.75825 | 23299 ft | 374 kts | 278° |
| 2026-04-28 11:41 | 24.06078 | 104.73013 | 23045 ft | 372 kts | 278° |
| 2026-04-28 11:41 | 24.06497 | 104.70220 | 22787 ft | 371 kts | 278° |
| 2026-04-28 11:42 | 24.06913 | 104.67436 | 22534 ft | 370 kts | 278° |
| 2026-04-28 11:42 | 24.07327 | 104.64661 | 22278 ft | 369 kts | 278° |
| 2026-04-28 11:42 | 24.07738 | 104.61898 | 22029 ft | 367 kts | 278° |
| 2026-04-28 11:42 | 24.08145 | 104.59144 | 21770 ft | 365 kts | 278° |
| 2026-04-28 11:43 | 24.08547 | 104.56420 | 21657 ft | 362 kts | 278° |
| 2026-04-28 11:43 | 24.08948 | 104.53695 | 21618 ft | 363 kts | 278° |
| 2026-04-28 11:43 | 24.09348 | 104.50970 | 21606 ft | 361 kts | 278° |
| 2026-04-28 11:43 | 24.09747 | 104.48257 | 21608 ft | 361 kts | 278° |
| 2026-04-28 11:44 | 24.10146 | 104.45538 | 21613 ft | 362 kts | 278° |
| 2026-04-28 11:44 | 24.10508 | 104.42849 | 21609 ft | 362 kts | 275° |
| 2026-04-28 11:44 | 24.10737 | 104.40104 | 21609 ft | 362 kts | 274° |
| 2026-04-28 11:44 | 24.10925 | 104.37348 | 21611 ft | 362 kts | 273° |
| 2026-04-28 11:45 | 24.11102 | 104.34591 | 21615 ft | 363 kts | 273° |
| 2026-04-28 11:45 | 24.11273 | 104.31835 | 21610 ft | 363 kts | 273° |
| 2026-04-28 11:45 | 24.11440 | 104.29081 | 21613 ft | 363 kts | 273° |
| 2026-04-28 11:45 | 24.11606 | 104.26324 | 21619 ft | 363 kts | 273° |
| 2026-04-28 11:46 | 24.11770 | 104.23563 | 21618 ft | 364 kts | 273° |
| 2026-04-28 11:46 | 24.11934 | 104.20798 | 21617 ft | 364 kts | 273° |
| 2026-04-28 11:46 | 24.12098 | 104.18032 | 21620 ft | 364 kts | 273° |
| 2026-04-28 11:46 | 24.12261 | 104.15267 | 21623 ft | 364 kts | 273° |
| 2026-04-28 11:47 | 24.12571 | 104.12550 | 21606 ft | 365 kts | 285° |
| 2026-04-28 11:47 | 24.13668 | 104.10049 | 21631 ft | 368 kts | 303° |
| 2026-04-28 11:47 | 24.15370 | 104.07949 | 21617 ft | 371 kts | 315° |
| 2026-04-28 11:47 | 24.17299 | 104.06105 | 21413 ft | 364 kts | 317° |
| 2026-04-28 11:48 | 24.19237 | 104.04350 | 21219 ft | 358 kts | 318° |
| 2026-04-28 11:48 | 24.21150 | 104.02640 | 21017 ft | 352 kts | 318° |
| 2026-04-28 11:48 | 24.23039 | 104.00959 | 20827 ft | 349 kts | 318° |
| 2026-04-28 11:48 | 24.24928 | 103.99281 | 20642 ft | 350 kts | 318° |
| 2026-04-28 11:49 | 24.26822 | 103.97600 | 20467 ft | 350 kts | 318° |
| 2026-04-28 11:49 | 24.28717 | 103.95920 | 20274 ft | 350 kts | 318° |
| 2026-04-28 11:49 | 24.30612 | 103.94241 | 20093 ft | 350 kts | 318° |
| 2026-04-28 11:49 | 24.32509 | 103.92560 | 19913 ft | 350 kts | 318° |
| 2026-04-28 11:50 | 24.34381 | 103.90900 | 19740 ft | 350 kts | 318° |
| 2026-04-28 11:50 | 24.36276 | 103.89220 | 19549 ft | 350 kts | 318° |
| 2026-04-28 11:50 | 24.38106 | 103.87477 | 19362 ft | 346 kts | 309° |
| 2026-04-28 11:50 | 24.39441 | 103.85316 | 19176 ft | 340 kts | 292° |
| 2026-04-28 11:51 | 24.40209 | 103.82882 | 19019 ft | 336 kts | 284° |
| 2026-04-28 11:51 | 24.40835 | 103.80414 | 18833 ft | 335 kts | 284° |
| 2026-04-28 11:51 | 24.41469 | 103.77957 | 18662 ft | 334 kts | 284° |
| 2026-04-28 11:51 | 24.42106 | 103.75518 | 18484 ft | 332 kts | 284° |
| 2026-04-28 11:52 | 24.42747 | 103.73083 | 18303 ft | 331 kts | 284° |
| 2026-04-28 11:52 | 24.43389 | 103.70657 | 18108 ft | 330 kts | 284° |
| 2026-04-28 11:52 | 24.44029 | 103.68241 | 17894 ft | 328 kts | 285° |
| 2026-04-28 11:52 | 24.44664 | 103.65847 | 17700 ft | 327 kts | 284° |
| 2026-04-28 11:53 | 24.45292 | 103.63480 | 17608 ft | 327 kts | 285° |
| 2026-04-28 11:53 | 24.45928 | 103.61083 | 17572 ft | 326 kts | 285° |
| 2026-04-28 11:53 | 24.46558 | 103.58706 | 17579 ft | 324 kts | 285° |
| 2026-04-28 11:53 | 24.47189 | 103.56324 | 17580 ft | 325 kts | 285° |
| 2026-04-28 11:54 | 24.47617 | 103.54710 | 17581 ft | 325 kts | 285° |
| 2026-04-28 11:54 | 24.48241 | 103.52352 | 17573 ft | 325 kts | 285° |
| 2026-04-28 11:54 | 24.48871 | 103.49971 | 17578 ft | 324 kts | 284° |
| 2026-04-28 11:54 | 24.49499 | 103.47594 | 17584 ft | 324 kts | 284° |
| 2026-04-28 11:55 | 24.50126 | 103.45221 | 17589 ft | 324 kts | 284° |
| 2026-04-28 11:55 | 24.50753 | 103.42847 | 17586 ft | 323 kts | 285° |
| 2026-04-28 11:55 | 24.51377 | 103.40480 | 17588 ft | 323 kts | 285° |
| 2026-04-28 11:55 | 24.52002 | 103.38109 | 17585 ft | 322 kts | 285° |
| 2026-04-28 11:56 | 24.52625 | 103.35744 | 17596 ft | 322 kts | 284° |
| 2026-04-28 11:56 | 24.53247 | 103.33384 | 17599 ft | 322 kts | 284° |
| 2026-04-28 11:56 | 24.53866 | 103.31030 | 17442 ft | 318 kts | 285° |
| 2026-04-28 11:56 | 24.54476 | 103.28714 | 17279 ft | 312 kts | 284° |
| 2026-04-28 11:57 | 24.55074 | 103.26438 | 17129 ft | 309 kts | 284° |
| 2026-04-28 11:57 | 24.55693 | 103.24179 | 16902 ft | 309 kts | 286° |
| 2026-04-28 11:57 | 24.56336 | 103.21933 | 16684 ft | 308 kts | 286° |
| 2026-04-28 11:57 | 24.56980 | 103.19694 | 16460 ft | 308 kts | 286° |
| 2026-04-28 11:58 | 24.57623 | 103.17449 | 16242 ft | 307 kts | 286° |
| 2026-04-28 11:58 | 24.58252 | 103.15241 | 16040 ft | 307 kts | 286° |
| 2026-04-28 11:58 | 24.58888 | 103.13004 | 15817 ft | 307 kts | 286° |
| 2026-04-28 11:58 | 24.59526 | 103.10768 | 15661 ft | 308 kts | 286° |
| 2026-04-28 11:59 | 24.60169 | 103.08530 | 15632 ft | 306 kts | 286° |
| 2026-04-28 11:59 | 24.60807 | 103.06317 | 15532 ft | 302 kts | 288° |
| 2026-04-28 11:59 | 24.61815 | 103.04318 | 15305 ft | 301 kts | 307° |
| 2026-04-28 11:59 | 24.63233 | 103.02634 | 15024 ft | 299 kts | 312° |
| 2026-04-28 12:00 | 24.64706 | 103.01024 | 14755 ft | 297 kts | 313° |
| 2026-04-28 12:00 | 24.66174 | 102.99439 | 14482 ft | 294 kts | 313° |
| 2026-04-28 12:00 | 24.67624 | 102.97867 | 14211 ft | 292 kts | 313° |
| 2026-04-28 12:00 | 24.69061 | 102.96299 | 13930 ft | 289 kts | 313° |
| 2026-04-28 12:01 | 24.70137 | 102.95119 | 13706 ft | 283 kts | 312° |
| 2026-04-28 12:01 | 24.71563 | 102.93549 | 13359 ft | 275 kts | 312° |
| 2026-04-28 12:01 | 24.72903 | 102.92071 | 13076 ft | 271 kts | 312° |
| 2026-04-28 12:01 | 24.74228 | 102.90604 | 12787 ft | 270 kts | 311° |
| 2026-04-28 12:02 | 24.75553 | 102.89134 | 12489 ft | 270 kts | 312° |
| 2026-04-28 12:02 | 24.76876 | 102.87666 | 12165 ft | 269 kts | 312° |
| 2026-04-28 12:02 | 24.78171 | 102.86229 | 11909 ft | 267 kts | 311° |
| 2026-04-28 12:02 | 24.79478 | 102.84776 | 11606 ft | 267 kts | 311° |
| 2026-04-28 12:03 | 24.80787 | 102.83322 | 11340 ft | 266 kts | 312° |
| 2026-04-28 12:03 | 24.82078 | 102.81888 | 11097 ft | 261 kts | 312° |
| 2026-04-28 12:03 | 24.83344 | 102.80481 | 10837 ft | 253 kts | 312° |
| 2026-04-28 12:03 | 24.84559 | 102.79132 | 10796 ft | 244 kts | 311° |
| 2026-04-28 12:04 | 24.85718 | 102.77844 | 10771 ft | 229 kts | 311° |
| 2026-04-28 12:04 | 24.86806 | 102.76682 | 10751 ft | 213 kts | 320° |
| 2026-04-28 12:04 | 24.88199 | 102.76237 | 10778 ft | 212 kts | 5° |
| 2026-04-28 12:04 | 24.89547 | 102.76828 | 10835 ft | 215 kts | 26° |
| 2026-04-28 12:05 | 24.90858 | 102.77640 | 10816 ft | 216 kts | 27° |
| 2026-04-28 12:05 | 24.92154 | 102.78497 | 10818 ft | 218 kts | 31° |
| 2026-04-28 12:05 | 24.93388 | 102.79454 | 10699 ft | 215 kts | 35° |
| 2026-04-28 12:05 | 24.94558 | 102.80451 | 10450 ft | 210 kts | 36° |
| 2026-04-28 12:06 | 24.95689 | 102.81440 | 10194 ft | 205 kts | 37° |
| 2026-04-28 12:06 | 24.96774 | 102.82394 | 9947 ft | 195 kts | 38° |
| 2026-04-28 12:06 | 24.97811 | 102.83304 | 9733 ft | 181 kts | 38° |
| 2026-04-28 12:06 | 24.98790 | 102.84160 | 9474 ft | 179 kts | 38° |
| 2026-04-28 12:07 | 24.99767 | 102.85015 | 9234 ft | 180 kts | 38° |
| 2026-04-28 12:07 | 25.00745 | 102.85872 | 8990 ft | 179 kts | 38° |
| 2026-04-28 12:07 | 25.01711 | 102.86718 | 8748 ft | 175 kts | 38° |
| 2026-04-28 12:07 | 25.02646 | 102.87536 | 8519 ft | 172 kts | 38° |
| 2026-04-28 12:08 | 25.03581 | 102.88355 | 8302 ft | 171 kts | 39° |
| 2026-04-28 12:08 | 25.04507 | 102.89167 | 8074 ft | 169 kts | 39° |
| 2026-04-28 12:08 | 25.05420 | 102.89966 | 7849 ft | 166 kts | 39° |
| 2026-04-28 12:08 | 25.06177 | 102.90628 | 7651 ft | 161 kts | 39° |
| 2026-04-28 12:09 | 25.07044 | 102.91389 | 7413 ft | 159 kts | 39° |
| 2026-04-28 12:09 | 25.07905 | 102.92142 | 7199 ft | 157 kts | 40° |
| 2026-04-28 12:09 | 25.08769 | 102.92898 | 6996 ft | 159 kts | 38° |
| 2026-04-28 12:09 | 25.09621 | 102.93638 | 6893 ft | 145 kts | 39° |
| 2026-04-28 12:10 | 25.10288 | 102.94215 | 6892 ft | 85 kts | 38° |
| 2026-04-28 12:10 | 25.10631 | 102.94513 | 6890 ft | 42 kts | 34° |
| 2026-04-28 12:10 | 25.10798 | 102.94586 | 6889 ft | 2 kts | 14° |
| 2026-04-28 12:10 | 25.10812 | 102.94590 | 6889 ft | 2 kts | 14° |
| 2026-04-28 12:11 | 25.10826 | 102.94594 | 6889 ft | 2 kts | 14° |
| 2026-04-28 12:11 | 25.10846 | 102.94600 | 6889 ft | 4 kts | 14° |
| 2026-04-28 12:11 | 25.10882 | 102.94605 | 6889 ft | 6 kts | 358° |
| 2026-04-28 12:11 | 25.10924 | 102.94586 | 6890 ft | 7 kts | 309° |
| 2026-04-28 12:12 | 25.10963 | 102.94533 | 6890 ft | 9 kts | 307° |
| 2026-04-28 12:12 | 25.10997 | 102.94484 | 6890 ft | 10 kts | 307° |
| 2026-04-28 12:12 | 25.11043 | 102.94417 | 6890 ft | 12 kts | 308° |
| 2026-04-28 12:12 | 25.11081 | 102.94329 | 6891 ft | 14 kts | 250° |
| 2026-04-28 12:13 | 25.11045 | 102.94237 | 6891 ft | 15 kts | 299° |
| 2026-04-28 12:13 | 25.11098 | 102.94159 | 6892 ft | 13 kts | 309° |
| 2026-04-28 12:13 | 25.11160 | 102.94075 | 6893 ft | 15 kts | 308° |
| 2026-04-28 12:13 | 25.11212 | 102.94003 | 6893 ft | 11 kts | 308° |
| 2026-04-28 12:14 | 25.11198 | 102.93943 | 6894 ft | 6 kts | 219° |
| 2026-04-28 12:14 | 25.11167 | 102.93914 | 6894 ft | 2 kts | 220° |
| 2026-04-28 12:14 | 25.11155 | 102.93902 | 6894 ft | 0 kts | 221° |